KMVE/MVE METAR and TAF weather

Enter ICAO airport designator
Station Type Date Time Source
KMVE METAR 2019/02/22 23:15 UTC NOAA

KMVE 222315Z AUTO 09013KT 2SM -SN BKN015 OVC020 M07/M09 A3020 RMK AO2


Station Type Date Time Source
KMVE Decoded METAR 2019/02/22 23:15 UTC NOAA

Montevideo, Montevideo-Chippewa County Airport, MN, United States (KMVE) 44-58N 095-43W
Feb 22, 2019 - 06:15 PM EST / 2019.02.22 2315 UTC
Wind: from the E (090 degrees) at 15 MPH (13 KT):0
Visibility: 2 mile(s):0
Sky conditions: overcast
Weather: light snow
Temperature: 19 F (-7 C)
Windchill: 5 F (-15 C):1
Dew Point: 15 F (-9 C)
Relative Humidity: 85%
Pressure (altimeter): 30.2 in. Hg (1022 hPa)
ob: KMVE 222315Z AUTO 09013KT 2SM -SN BKN015 OVC020 M07/M09 A3020 RMK AO2
cycle: 23

Station Type Date Time Source
KMVE TAF UTC NOAA

Error!


Example: see airport list